Time;durP1;ratioP1;P1;durP2;ratioP2;P2;SDS_P1;SDS_P2;PMS_P1;PMS_P2;Temp;Humidity;BMP_temperature;BMP_pressure;BME280_temperature;BME280_humidity;BME280_pressure;Samples;Min_cycle;Max_cycle;Signal;HPM_P1;HPM_P2
2023/06/21 00:03:32;;;;;;;13.57;3.95;;;;;20.70;96275.00;;;;8326536;28;20232;-75
2023/06/21 00:07:38;;;;;;;14.65;4.30;;;;;20.70;96279.00;;;;8318639;28;20197;-75
2023/06/21 00:11:41;;;;;;;13.35;4.45;;;;;20.70;96295.00;;;;8316616;28;20575;-76
2023/06/21 00:15:45;;;;;;;18.17;4.60;;;;;20.80;96283.00;;;;8318096;28;20233;-77
2023/06/21 00:19:49;;;;;;;15.98;4.45;;;;;20.80;96289.00;;;;8318253;28;20226;-74
2023/06/21 00:23:55;;;;;;;14.73;4.40;;;;;20.80;96318.00;;;;8321177;28;20225;-72
2023/06/21 00:28:00;;;;;;;11.68;4.03;;;;;20.80;96306.00;;;;8323237;28;20193;-78
2023/06/21 00:32:05;;;;;;;15.20;4.30;;;;;20.80;96313.00;;;;8318691;28;20633;-76
2023/06/21 00:36:12;;;;;;;13.55;4.32;;;;;20.80;96329.00;;;;8319205;28;20367;-79
2023/06/21 00:40:18;;;;;;;14.95;4.25;;;;;20.80;96350.00;;;;8310019;28;20206;-78
2023/06/21 00:44:24;;;;;;;14.45;3.83;;;;;20.80;96352.00;;;;8321882;28;20323;-71
2023/06/21 00:48:28;;;;;;;11.70;4.53;;;;;20.80;96303.00;;;;8312066;28;20868;-71
2023/06/21 00:52:33;;;;;;;10.00;4.05;;;;;20.80;96279.00;;;;8315513;28;20205;-73
2023/06/21 00:56:40;;;;;;;12.00;3.97;;;;;20.60;96293.00;;;;8318134;28;20233;-78
2023/06/21 01:00:44;;;;;;;10.32;4.40;;;;;20.40;96290.00;;;;8310816;28;20280;-77
2023/06/21 01:04:49;;;;;;;18.67;4.30;;;;;20.40;96290.00;;;;8318647;28;20237;-78
2023/06/21 01:09:03;;;;;;;15.60;4.82;;;;;20.30;96292.00;;;;8313819;28;20280;-81
2023/06/21 01:13:21;;;;;;;15.13;4.65;;;;;20.20;96283.00;;;;8309450;28;20204;-81
2023/06/21 01:17:27;;;;;;;16.65;5.53;;;;;20.10;96281.00;;;;8315542;28;20615;-80
2023/06/21 01:21:34;;;;;;;13.18;5.45;;;;;20.10;96278.00;;;;8313627;28;20216;-76
2023/06/21 01:25:53;;;;;;;18.35;5.53;;;;;20.00;96273.00;;;;8316085;28;20201;-77
2023/06/21 01:30:04;;;;;;;14.63;5.63;;;;;19.90;96268.00;;;;8299691;28;20844;-75
2023/06/21 01:34:12;;;;;;;17.65;6.00;;;;;19.90;96272.00;;;;8313289;28;20261;-74
2023/06/21 01:38:18;;;;;;;17.17;5.00;;;;;19.80;96284.00;;;;8302538;28;20204;-73
2023/06/21 01:42:21;;;;;;;16.63;5.65;;;;;19.70;96287.00;;;;8308254;28;20280;-73
2023/06/21 01:46:27;;;;;;;13.05;5.80;;;;;19.50;96282.00;;;;8315891;28;20280;-72
2023/06/21 01:50:31;;;;;;;14.10;6.35;;;;;19.50;96281.00;;;;8304909;28;20201;-73
2023/06/21 01:54:42;;;;;;;18.60;5.00;;;;;19.50;96292.00;;;;8313334;28;20251;-73
2023/06/21 01:58:47;;;;;;;14.40;5.20;;;;;19.40;96285.00;;;;8314848;28;20667;-73
2023/06/21 02:02:55;;;;;;;17.00;5.55;;;;;19.30;96285.00;;;;8309092;28;20324;-74
2023/06/21 02:07:02;;;;;;;18.63;5.72;;;;;19.20;96290.00;;;;8310243;28;20201;-73
2023/06/21 02:11:07;;;;;;;19.42;5.97;;;;;19.20;96296.00;;;;8307134;28;20201;-71
2023/06/21 02:15:14;;;;;;;13.55;5.72;;;;;19.10;96291.00;;;;8308124;28;20320;-73
2023/06/21 02:19:18;;;;;;;19.48;6.53;;;;;19.00;96303.00;;;;8299376;28;20267;-72
2023/06/21 02:23:24;;;;;;;16.98;5.68;;;;;19.00;96308.00;;;;8301790;28;20292;-72
2023/06/21 02:27:33;;;;;;;17.65;5.90;;;;;19.00;96302.00;;;;8312417;28;20221;-74
2023/06/21 02:31:37;;;;;;;18.13;6.05;;;;;18.90;96296.00;;;;8312373;28;20219;-79
2023/06/21 02:35:47;;;;;;;26.65;6.95;;;;;18.90;96283.00;;;;8314976;28;20316;-74
2023/06/21 02:39:50;;;;;;;13.50;5.93;;;;;18.80;96272.00;;;;8309453;28;20221;-76
2023/06/21 02:43:53;;;;;;;17.90;6.30;;;;;18.70;96275.00;;;;8307801;28;20647;-72
2023/06/21 02:47:58;;;;;;;27.70;6.65;;;;;18.70;96281.00;;;;8315339;28;20245;-76
2023/06/21 02:52:05;;;;;;;20.27;6.10;;;;;18.60;96275.00;;;;8313142;28;20201;-73
2023/06/21 02:56:09;;;;;;;15.38;6.35;;;;;18.60;96280.00;;;;8313517;28;20316;-72
2023/06/21 03:00:19;;;;;;;23.92;6.85;;;;;18.40;96274.00;;;;8311541;28;20201;-74
2023/06/21 03:04:24;;;;;;;22.25;6.78;;;;;18.40;96276.00;;;;8345367;23;20327;-70
2023/06/21 03:08:31;;;;;;;20.00;7.25;;;;;18.40;96277.00;;;;8323922;28;20321;-70
2023/06/21 03:12:34;;;;;;;20.85;6.80;;;;;18.30;96280.00;;;;8345425;28;20279;-75
2023/06/21 03:16:38;;;;;;;12.40;5.90;;;;;18.30;96290.00;;;;8354278;28;20220;-72
2023/06/21 03:20:42;;;;;;;20.50;6.35;;;;;18.30;96285.00;;;;8346654;28;20280;-70
2023/06/21 03:24:49;;;;;;;23.52;6.88;;;;;18.30;96291.00;;;;8355747;28;20236;-70
2023/06/21 03:28:59;;;;;;;14.32;6.47;;;;;18.20;96302.00;;;;8353072;28;20606;-76
2023/06/21 03:33:04;;;;;;;20.23;6.93;;;;;18.10;96300.00;;;;8351415;28;20301;-70
2023/06/21 03:37:07;;;;;;;23.45;7.65;;;;;18.10;96304.00;;;;8352462;28;20228;-70
2023/06/21 03:41:12;;;;;;;23.63;7.15;;;;;18.10;96318.00;;;;8350133;28;20646;-74
2023/06/21 03:45:16;;;;;;;30.17;7.55;;;;;18.20;96327.00;;;;8355970;28;20296;-70
2023/06/21 03:49:20;;;;;;;22.95;7.97;;;;;18.20;96339.00;;;;8346300;28;20231;-74
2023/06/21 03:53:27;;;;;;;22.27;7.78;;;;;18.20;96328.00;;;;8354793;28;20247;-72
2023/06/21 03:57:33;;;;;;;20.95;7.30;;;;;18.30;96317.00;;;;8361200;28;20234;-69
2023/06/21 04:01:38;;;;;;;20.48;7.28;;;;;18.40;96324.00;;;;8353024;28;20299;-71
2023/06/21 04:05:45;;;;;;;15.88;6.43;;;;;18.50;96333.00;;;;8349649;28;20197;-74
2023/06/21 04:09:48;;;;;;;13.20;6.78;;;;;18.70;96349.00;;;;8348485;28;20300;-71
2023/06/21 04:13:53;;;;;;;14.80;6.43;;;;;18.80;96354.00;;;;8329329;28;20193;-75
2023/06/21 04:17:57;;;;;;;31.20;7.45;;;;;19.00;96357.00;;;;8328213;28;20315;-81
2023/06/21 04:22:02;;;;;;;18.38;7.95;;;;;19.30;96359.00;;;;8349041;28;20193;-76
2023/06/21 04:26:06;;;;;;;13.65;6.55;;;;;19.80;96361.00;;;;8356925;28;20292;-78
2023/06/21 04:30:11;;;;;;;15.00;5.82;;;;;20.10;96361.00;;;;8351403;28;20193;-74
2023/06/21 04:34:14;;;;;;;12.93;6.28;;;;;20.70;96348.00;;;;8354158;28;20299;-69
2023/06/21 04:38:18;;;;;;;13.88;7.60;;;;;21.30;96349.00;;;;8353953;28;22164;-77
2023/06/21 04:42:21;;;;;;;9.48;5.75;;;;;21.80;96352.00;;;;8346593;28;20284;-74
2023/06/21 04:46:28;;;;;;;23.13;7.10;;;;;22.00;96366.00;;;;8354839;28;20235;-73
2023/06/21 04:50:32;;;;;;;14.85;6.38;;;;;22.30;96369.00;;;;8355889;28;20603;-72
2023/06/21 04:54:36;;;;;;;21.35;6.45;;;;;22.50;96372.00;;;;8345395;28;20279;-73
2023/06/21 04:58:42;;;;;;;15.05;6.68;;;;;22.40;96370.00;;;;8351505;28;20193;-71
2023/06/21 05:02:49;;;;;;;11.77;6.15;;;;;22.40;96380.00;;;;8339845;28;20236;-72
2023/06/21 05:06:53;;;;;;;14.77;6.70;;;;;22.50;96398.00;;;;8350270;28;20362;-69
2023/06/21 05:10:56;;;;;;;15.45;5.90;;;;;22.50;96395.00;;;;8364971;28;22124;-69
2023/06/21 05:15:01;;;;;;;12.35;5.82;;;;;22.70;96393.00;;;;8338959;28;20696;-72
2023/06/21 05:19:07;;;;;;;16.00;6.30;;;;;23.10;96393.00;;;;8356583;28;20200;-75
2023/06/21 05:23:10;;;;;;;14.55;5.70;;;;;23.40;96398.00;;;;8351517;28;20654;-75
2023/06/21 05:27:13;;;;;;;10.38;5.38;;;;;23.70;96411.00;;;;8346695;28;20197;-75
2023/06/21 05:31:18;;;;;;;16.95;6.20;;;;;24.10;96419.00;;;;8340052;28;20208;-76
2023/06/21 05:35:22;;;;;;;15.70;5.68;;;;;24.50;96425.00;;;;8345859;28;20230;-76
2023/06/21 05:39:29;;;;;;;10.35;5.50;;;;;24.70;96437.00;;;;8345569;28;20200;-75
2023/06/21 05:43:32;;;;;;;15.75;5.93;;;;;24.80;96441.00;;;;8350548;28;20236;-71
2023/06/21 05:47:36;;;;;;;13.50;5.43;;;;;25.10;96441.00;;;;8344992;28;20287;-72
2023/06/21 05:51:44;;;;;;;12.77;5.32;;;;;25.40;96448.00;;;;8345387;28;20928;-73
2023/06/21 05:55:47;;;;;;;15.90;5.45;;;;;26.00;96454.00;;;;8347367;28;20232;-78
2023/06/21 05:59:51;;;;;;;18.08;6.45;;;;;26.20;96460.00;;;;8344115;28;20197;-72
2023/06/21 06:03:55;;;;;;;9.50;5.32;;;;;26.40;96460.00;;;;8338212;28;20236;-73
2023/06/21 06:07:59;;;;;;;12.75;5.90;;;;;26.50;96484.00;;;;8347382;28;20244;-74
2023/06/21 06:12:03;;;;;;;13.68;5.45;;;;;26.20;96493.00;;;;8344737;28;20193;-72
2023/06/21 06:16:06;;;;;;;8.68;5.35;;;;;25.90;96506.00;;;;8349588;28;20761;-75
2023/06/21 06:20:13;;;;;;;14.35;5.80;;;;;25.60;96508.00;;;;8346393;28;20243;-71
2023/06/21 06:24:22;;;;;;;8.40;5.28;;;;;25.40;96504.00;;;;8344969;28;20546;-73
2023/06/21 06:28:25;;;;;;;9.85;4.75;;;;;25.30;96493.00;;;;8342963;28;20883;-72
2023/06/21 06:32:28;;;;;;;10.27;5.38;;;;;25.40;96491.00;;;;8339744;28;20219;-75
2023/06/21 06:36:32;;;;;;;17.73;5.63;;;;;25.50;96500.00;;;;8345014;28;20217;-69
2023/06/21 06:40:37;;;;;;;17.05;6.30;;;;;25.60;96504.00;;;;8347441;28;20926;-73
2023/06/21 06:44:50;;;;;;;18.75;5.72;;;;;25.50;96525.00;;;;8345011;28;20291;-73
2023/06/21 06:48:53;;;;;;;14.38;5.28;;;;;25.40;96557.00;;;;8330017;28;20665;-73
2023/06/21 06:53:00;;;;;;;14.25;5.70;;;;;25.20;96580.00;;;;8332438;28;20204;-78
2023/06/21 06:57:08;;;;;;;13.88;6.32;;;;;25.20;96559.00;;;;8317076;28;20324;-73
2023/06/21 07:01:27;;;;;;;11.38;6.25;;;;;25.70;96554.00;;;;8332469;28;20255;-74
2023/06/21 07:05:30;;;;;;;8.60;5.97;;;;;26.10;96551.00;;;;8330209;28;20904;-73
2023/06/21 07:09:39;;;;;;;10.68;6.32;;;;;26.00;96523.00;;;;8336152;28;20208;-73
2023/06/21 07:13:44;;;;;;;11.48;6.38;;;;;26.00;96523.00;;;;8340254;28;20759;-71
2023/06/21 07:17:47;;;;;;;12.23;6.70;;;;;26.30;96552.00;;;;8343066;28;20252;-72
2023/06/21 07:21:51;;;;;;;11.00;6.82;;;;;26.70;96545.00;;;;8341144;28;21051;-69
2023/06/21 07:25:56;;;;;;;10.25;7.07;;;;;27.20;96555.00;;;;8345764;28;20255;-75
2023/06/21 07:30:02;;;;;;;10.65;6.30;;;;;28.40;96556.00;;;;8346016;28;20197;-72
2023/06/21 07:34:08;;;;;;;14.10;6.70;;;;;29.20;96555.00;;;;8339501;28;20205;-72
2023/06/21 07:38:14;;;;;;;18.23;7.15;;;;;29.60;96554.00;;;;8343835;28;20690;-72
2023/06/21 07:42:25;;;;;;;12.98;6.63;;;;;29.40;96560.00;;;;8343723;28;20195;-73
2023/06/21 07:46:36;;;;;;;16.77;6.20;;;;;29.20;96549.00;;;;8338828;28;20204;-74
2023/06/21 07:50:41;;;;;;;12.55;6.30;;;;;29.40;96542.00;;;;8343262;28;20561;-72
2023/06/21 07:54:48;;;;;;;9.65;5.25;;;;;30.30;96545.00;;;;8345023;28;20235;-75
2023/06/21 07:58:51;;;;;;;8.57;5.22;;;;;30.70;96536.00;;;;8340156;28;20873;-73
2023/06/21 08:02:56;;;;;;;15.57;5.65;;;;;31.30;96527.00;;;;8346786;28;20228;-75
2023/06/21 08:06:59;;;;;;;8.23;4.40;;;;;31.90;96530.00;;;;8349084;28;20279;-76
2023/06/21 08:11:03;;;;;;;8.18;5.15;;;;;32.80;96524.00;;;;8345943;28;20724;-73
2023/06/21 08:15:07;;;;;;;7.55;5.07;;;;;33.50;96513.00;;;;8343648;28;20197;-75
2023/06/21 08:19:13;;;;;;;9.43;4.85;;;;;34.30;96514.00;;;;8337869;28;20312;-75
2023/06/21 08:23:19;;;;;;;6.13;4.50;;;;;34.80;96516.00;;;;8340193;28;20201;-73
2023/06/21 08:27:22;;;;;;;8.23;5.32;;;;;34.60;96522.00;;;;8336131;28;20287;-74
2023/06/21 08:31:27;;;;;;;5.57;4.40;;;;;34.70;96520.00;;;;8344670;28;20280;-73
2023/06/21 08:35:36;;;;;;;6.80;4.90;;;;;34.30;96512.00;;;;8347352;28;20197;-73
2023/06/21 08:39:45;;;;;;;6.38;4.65;;;;;34.30;96506.00;;;;8346488;28;20305;-74
2023/06/21 08:43:48;;;;;;;8.98;5.00;;;;;34.80;96507.00;;;;8334303;28;20193;-74
2023/06/21 08:47:55;;;;;;;7.20;4.50;;;;;34.80;96509.00;;;;8344520;28;20207;-75
2023/06/21 08:52:00;;;;;;;5.90;4.28;;;;;34.80;96519.00;;;;8337949;28;20200;-73
2023/06/21 08:56:06;;;;;;;6.00;4.38;;;;;34.80;96510.00;;;;8346986;28;20802;-72
2023/06/21 09:00:13;;;;;;;5.15;4.40;;;;;35.00;96516.00;;;;8347100;28;20653;-67
2023/06/21 09:04:19;;;;;;;10.27;4.35;;;;;35.20;96515.00;;;;8347336;28;20310;-73
2023/06/21 09:08:24;;;;;;;7.93;4.47;;;;;36.40;96532.00;;;;8344250;28;20484;-75
2023/06/21 09:12:34;;;;;;;4.97;4.47;;;;;37.50;96530.00;;;;8336065;28;20212;-76
2023/06/21 09:16:38;;;;;;;8.20;4.40;;;;;38.30;96530.00;;;;8345801;28;20228;-76
2023/06/21 09:20:44;;;;;;;4.38;3.97;;;;;39.00;96540.00;;;;8339485;28;20221;-74
2023/06/21 09:24:51;;;;;;;4.82;4.05;;;;;38.80;96542.00;;;;8344642;28;20266;-73
2023/06/21 09:28:55;;;;;;;7.47;4.40;;;;;38.50;96550.00;;;;8344924;28;20955;-74
2023/06/21 09:32:58;;;;;;;6.72;4.22;;;;;37.60;96559.00;;;;8346599;28;20598;-79
2023/06/21 09:37:02;;;;;;;5.45;4.32;;;;;37.20;96560.00;;;;8343870;28;20228;-73
2023/06/21 09:41:08;;;;;;;5.35;4.18;;;;;37.60;96563.00;;;;8347760;28;20716;-76
2023/06/21 09:45:14;;;;;;;13.15;3.90;;;;;37.50;96566.00;;;;8344777;28;20203;-75
2023/06/21 09:49:17;;;;;;;5.88;3.90;;;;;38.00;96563.00;;;;8330629;28;20557;-74
2023/06/21 09:53:32;;;;;;;4.88;4.20;;;;;38.50;96557.00;;;;8347274;28;20204;-76
2023/06/21 09:57:37;;;;;;;5.28;4.18;;;;;39.20;96544.00;;;;8343265;28;20236;-75
2023/06/21 10:01:45;;;;;;;7.90;4.30;;;;;39.90;96535.00;;;;8330215;28;20207;-77
2023/06/21 10:05:58;;;;;;;7.18;4.28;;;;;40.40;96544.00;;;;8344365;28;20193;-77
2023/06/21 10:10:07;;;;;;;5.10;4.30;;;;;40.80;96547.00;;;;8344977;28;20625;-77
2023/06/21 10:14:22;;;;;;;7.47;4.10;;;;;40.40;96541.00;;;;8348486;28;20566;-77
2023/06/21 10:18:28;;;;;;;9.02;4.45;;;;;39.80;96544.00;;;;8342255;28;20654;-79
2023/06/21 10:22:36;;;;;;;4.43;4.03;;;;;39.60;96544.00;;;;8339882;28;20201;-78
2023/06/21 10:26:49;;;;;;;5.35;3.95;;;;;39.50;96534.00;;;;8333320;28;20208;-75
2023/06/21 10:30:56;;;;;;;8.02;3.28;;;;;39.40;96549.00;;;;8321886;28;20203;-78
2023/06/21 10:35:05;;;;;;;6.40;3.30;;;;;38.90;96560.00;;;;8340617;28;20327;-77
2023/06/21 10:39:13;;;;;;;4.47;3.35;;;;;38.70;96576.00;;;;8341115;28;20650;-75
2023/06/21 10:43:17;;;;;;;5.03;3.58;;;;;38.70;96572.00;;;;8338823;28;20679;-78
2023/06/21 10:47:23;;;;;;;5.75;3.50;;;;;38.30;96587.00;;;;8341615;28;20208;-73
2023/06/21 10:51:27;;;;;;;7.22;3.80;;;;;37.50;96612.00;;;;8340006;28;20663;-75
2023/06/21 10:55:32;;;;;;;5.93;4.05;;;;;36.00;96650.00;;;;8345474;28;20561;-74
2023/06/21 10:59:36;;;;;;;6.07;3.95;;;;;34.50;96672.00;;;;8338677;28;21382;-71
2023/06/21 11:03:44;;;;;;;5.82;3.30;;;;;33.40;96732.00;;;;8339507;28;20224;-71
2023/06/21 11:07:54;;;;;;;25.63;5.85;;;;;30.80;96804.00;;;;8338741;28;20216;-70
2023/06/21 11:12:00;;;;;;;8.98;3.55;;;;;26.00;96834.00;;;;8341845;28;20193;-66
2023/06/21 11:16:14;;;;;;;11.73;4.38;;;;;23.70;96826.00;;;;8341451;28;20227;-67
2023/06/21 11:20:23;;;;;;;6.47;3.40;;;;;22.30;96806.00;;;;8337973;28;20702;-65
2023/06/21 11:24:36;;;;;;;12.00;4.53;;;;;21.60;96779.00;;;;8341924;28;20239;-67
2023/06/21 11:28:51;;;;;;;14.05;3.85;;;;;21.00;96754.00;;;;8339457;28;20224;-64
2023/06/21 11:32:56;;;;;;;9.48;3.53;;;;;20.80;96708.00;;;;8344520;28;20274;-65
2023/06/21 11:37:40;;;;;;;14.40;4.07;;;;;20.60;96654.00;;;;8339957;28;20201;-65
2023/06/21 11:42:01;;;;;;;17.92;3.60;;;;;20.40;96639.00;;;;8346409;28;20677;-64
2023/06/21 11:46:05;;;;;;;7.18;3.50;;;;;20.40;96602.00;;;;8345220;28;20203;-65
2023/06/21 11:50:15;;;;;;;10.57;3.22;;;;;20.30;96559.00;;;;8348916;28;20773;-65
2023/06/21 11:54:31;;;;;;;13.25;2.90;;;;;20.10;96520.00;;;;8346816;28;20199;-64
2023/06/21 11:58:35;;;;;;;7.40;2.75;;;;;19.80;96514.00;;;;8349052;28;20578;-65
2023/06/21 12:02:38;;;;;;;5.60;2.40;;;;;19.60;96522.00;;;;8347480;28;20256;-64
2023/06/21 12:06:43;;;;;;;3.08;2.08;;;;;19.50;96568.00;;;;8347793;28;20205;-64
2023/06/21 12:10:51;;;;;;;9.63;3.22;;;;;19.70;96624.00;;;;8331426;28;20223;-64
2023/06/21 12:15:03;;;;;;;7.95;3.78;;;;;19.90;96642.00;;;;8340490;28;20224;-63
2023/06/21 12:19:12;;;;;;;9.77;3.40;;;;;20.00;96641.00;;;;8328969;28;20252;-63
2023/06/21 12:23:16;;;;;;;15.63;3.63;;;;;20.20;96642.00;;;;8348347;28;20227;-64
2023/06/21 12:27:20;;;;;;;13.52;3.67;;;;;20.30;96637.00;;;;8345595;28;20303;-63
2023/06/21 12:31:29;;;;;;;7.90;3.60;;;;;20.50;96643.00;;;;8344300;28;20616;-68
2023/06/21 12:35:40;;;;;;;8.70;3.90;;;;;20.80;96625.00;;;;8348378;28;20201;-64
2023/06/21 12:39:49;;;;;;;11.82;4.05;;;;;21.20;96636.00;;;;8329899;28;20604;-64
2023/06/21 12:43:57;;;;;;;12.55;4.32;;;;;21.50;96640.00;;;;8348452;28;20236;-65
2023/06/21 12:48:00;;;;;;;13.93;4.22;;;;;21.90;96639.00;;;;8350458;28;20375;-65
2023/06/21 12:52:07;;;;;;;11.95;3.70;;;;;22.40;96638.00;;;;8346559;28;20197;-64
2023/06/21 12:56:14;;;;;;;10.65;3.67;;;;;22.90;96650.00;;;;8349215;28;20292;-65
2023/06/21 13:00:19;;;;;;;7.95;3.80;;;;;23.30;96651.00;;;;8345808;28;20869;-65
2023/06/21 13:04:22;;;;;;;8.13;3.50;;;;;23.50;96660.00;;;;8345306;28;20244;-65
2023/06/21 13:08:26;;;;;;;6.70;3.58;;;;;23.60;96665.00;;;;8350370;28;20209;-64
2023/06/21 13:12:31;;;;;;;8.00;3.22;;;;;24.00;96657.00;;;;8350363;28;20213;-65
2023/06/21 13:16:40;;;;;;;5.60;3.05;;;;;24.40;96656.00;;;;8347575;28;20221;-65
2023/06/21 13:20:45;;;;;;;9.02;3.58;;;;;24.60;96665.00;;;;8352039;28;20319;-67
2023/06/21 13:24:51;;;;;;;5.55;3.40;;;;;24.40;96659.00;;;;8350504;28;20689;-65
2023/06/21 13:28:54;;;;;;;6.70;3.30;;;;;24.30;96664.00;;;;8351181;28;20199;-67
2023/06/21 13:32:58;;;;;;;8.40;3.35;;;;;24.50;96662.00;;;;8351220;28;20233;-66
2023/06/21 13:37:04;;;;;;;9.90;3.60;;;;;24.70;96660.00;;;;8346793;28;20280;-66
2023/06/21 13:41:08;;;;;;;12.98;3.80;;;;;25.40;96655.00;;;;8349872;28;20262;-68
2023/06/21 13:45:12;;;;;;;9.82;3.63;;;;;26.10;96648.00;;;;8342087;28;20205;-67
2023/06/21 13:49:16;;;;;;;6.97;3.13;;;;;26.40;96642.00;;;;8342883;28;20288;-68
2023/06/21 13:53:22;;;;;;;6.85;3.20;;;;;26.70;96646.00;;;;8327044;28;20219;-68
2023/06/21 13:57:30;;;;;;;11.93;3.45;;;;;27.30;96649.00;;;;8322707;28;20231;-67
2023/06/21 14:01:35;;;;;;;11.43;3.72;;;;;27.50;96645.00;;;;8349634;28;20299;-69
2023/06/21 14:05:39;;;;;;;6.82;3.25;;;;;27.80;96645.00;;;;8347979;28;20200;-70
2023/06/21 14:09:44;;;;;;;12.45;3.65;;;;;27.60;96645.00;;;;8336556;28;20212;-70
2023/06/21 14:13:47;;;;;;;7.03;3.50;;;;;27.60;96645.00;;;;8350867;28;20200;-73
2023/06/21 14:17:57;;;;;;;5.95;3.28;;;;;27.90;96640.00;;;;8344304;28;20668;-75
2023/06/21 14:22:04;;;;;;;5.57;3.08;;;;;28.10;96634.00;;;;8347325;28;20197;-70
2023/06/21 14:26:07;;;;;;;8.15;3.45;;;;;28.40;96627.00;;;;8346554;28;20311;-70
2023/06/21 14:30:12;;;;;;;4.78;3.35;;;;;28.30;96634.00;;;;8344675;28;20684;-73
2023/06/21 14:34:16;;;;;;;4.70;3.28;;;;;28.40;96636.00;;;;8343906;28;20203;-71
2023/06/21 14:38:23;;;;;;;9.77;3.80;;;;;28.40;96640.00;;;;8359086;28;20238;-70
2023/06/21 14:42:28;;;;;;;9.10;3.75;;;;;29.10;96645.00;;;;8343576;28;20204;-71
2023/06/21 14:46:32;;;;;;;7.05;3.75;;;;;29.80;96647.00;;;;8350331;28;20283;-74
2023/06/21 14:50:35;;;;;;;4.90;3.83;;;;;29.90;96644.00;;;;8348342;28;20589;-72
2023/06/21 14:54:42;;;;;;;8.85;4.05;;;;;30.10;96658.00;;;;8351076;28;20295;-80
2023/06/21 14:58:46;;;;;;;5.75;3.60;;;;;30.90;96652.00;;;;8365553;28;20243;-77
2023/06/21 15:02:51;;;;;;;6.80;3.78;;;;;30.90;96656.00;;;;8339467;28;20228;-71
2023/06/21 15:06:55;;;;;;;7.40;3.95;;;;;30.70;96662.00;;;;8354125;28;20288;-70
2023/06/21 15:11:05;;;;;;;5.53;3.88;;;;;30.20;96653.00;;;;8355206;28;20208;-71
2023/06/21 15:15:09;;;;;;;5.75;3.90;;;;;29.90;96655.00;;;;8353707;28;20239;-71
2023/06/21 15:19:13;;;;;;;7.80;3.97;;;;;29.90;96648.00;;;;8354264;28;20323;-69
2023/06/21 15:23:20;;;;;;;7.25;4.10;;;;;30.20;96639.00;;;;8353221;28;20279;-70
2023/06/21 15:27:24;;;;;;;9.20;4.10;;;;;30.40;96642.00;;;;8352927;28;20295;-69
2023/06/21 15:31:27;;;;;;;9.30;3.97;;;;;30.20;96647.00;;;;8344765;28;20315;-70
2023/06/21 15:35:30;;;;;;;7.55;4.63;;;;;29.90;96657.00;;;;8350155;28;20232;-70
2023/06/21 15:39:33;;;;;;;5.93;4.47;;;;;30.00;96664.00;;;;8352702;28;20228;-68
2023/06/21 15:43:38;;;;;;;7.05;3.88;;;;;30.30;96668.00;;;;8357591;28;20300;-67
2023/06/21 15:47:42;;;;;;;6.80;4.15;;;;;30.50;96666.00;;;;8344217;28;20646;-68
2023/06/21 15:51:49;;;;;;;8.50;4.03;;;;;30.90;96670.00;;;;8332934;28;20630;-70
2023/06/21 15:56:01;;;;;;;4.88;3.75;;;;;31.20;96683.00;;;;8349728;28;20215;-69
2023/06/21 16:00:10;;;;;;;6.40;4.45;;;;;31.30;96687.00;;;;8350895;28;20840;-67
2023/06/21 16:04:14;;;;;;;5.50;4.30;;;;;31.30;96692.00;;;;8352604;28;20415;-66
2023/06/21 16:08:20;;;;;;;9.63;7.25;;;;;31.10;96697.00;;;;8352765;28;20205;-68
2023/06/21 16:12:27;;;;;;;9.13;4.03;;;;;31.60;96698.00;;;;8350947;28;20896;-68
2023/06/21 16:16:36;;;;;;;6.53;3.90;;;;;32.20;96692.00;;;;8343013;28;20609;-66
2023/06/21 16:20:39;;;;;;;4.57;4.00;;;;;32.40;96699.00;;;;8345378;28;20234;-69
2023/06/21 16:24:48;;;;;;;6.15;3.92;;;;;32.50;96704.00;;;;8349997;28;20196;-66
2023/06/21 16:28:52;;;;;;;8.73;4.55;;;;;32.50;96708.00;;;;8347779;28;20638;-67
2023/06/21 16:32:56;;;;;;;6.43;5.00;;;;;32.50;96714.00;;;;8341277;28;20197;-69
2023/06/21 16:37:07;;;;;;;36.58;25.38;;;;;32.70;96733.00;;;;8331830;28;20193;-68
2023/06/21 16:41:23;;;;;;;12.00;10.65;;;;;32.40;96723.00;;;;8344337;28;20694;-67
2023/06/21 16:45:29;;;;;;;7.60;4.20;;;;;32.10;96715.00;;;;8347609;28;20203;-68
2023/06/21 16:49:37;;;;;;;11.30;10.10;;;;;32.40;96723.00;;;;8356387;28;20211;-66
2023/06/21 16:53:43;;;;;;;6.88;4.00;;;;;32.70;96742.00;;;;8359549;28;20219;-69
2023/06/21 16:57:49;;;;;;;8.50;5.10;;;;;33.10;96749.00;;;;8352948;28;20236;-68
2023/06/21 17:01:55;;;;;;;6.40;4.57;;;;;33.10;96761.00;;;;8348956;28;20225;-69
2023/06/21 17:06:00;;;;;;;5.30;4.03;;;;;33.20;96756.00;;;;8350294;28;20244;-68
2023/06/21 17:10:05;;;;;;;5.07;4.40;;;;;33.30;96754.00;;;;8352832;28;20193;-70
2023/06/21 17:14:09;;;;;;;4.30;3.85;;;;;33.60;96743.00;;;;8348123;28;20193;-68
2023/06/21 17:18:22;;;;;;;5.72;3.95;;;;;33.60;96749.00;;;;8343807;28;20216;-67
2023/06/21 17:22:27;;;;;;;5.80;4.05;;;;;33.30;96740.00;;;;8351906;28;20235;-67
2023/06/21 17:26:30;;;;;;;7.20;4.28;;;;;33.20;96733.00;;;;8344080;28;20227;-67
2023/06/21 17:30:36;;;;;;;5.60;4.45;;;;;33.00;96723.00;;;;8349727;28;20237;-68
2023/06/21 17:34:42;;;;;;;7.32;4.20;;;;;33.00;96723.00;;;;8353281;28;20250;-70
2023/06/21 17:38:47;;;;;;;4.85;4.35;;;;;32.90;96710.00;;;;8347734;28;20216;-70
2023/06/21 17:42:50;;;;;;;6.05;4.22;;;;;32.50;96714.00;;;;8349887;28;20640;-69
2023/06/21 17:46:56;;;;;;;4.28;3.83;;;;;32.10;96701.00;;;;8353135;28;20197;-69
2023/06/21 17:50:59;;;;;;;5.45;4.80;;;;;31.30;96694.00;;;;8324625;28;20201;-68
2023/06/21 17:55:06;;;;;;;6.38;4.68;;;;;30.80;96689.00;;;;8343497;28;20200;-70
2023/06/21 17:59:09;;;;;;;5.00;3.95;;;;;30.10;96677.00;;;;8344438;28;20304;-67
2023/06/21 18:03:12;;;;;;;10.45;5.05;;;;;29.30;96674.00;;;;8334535;28;20559;-70
2023/06/21 18:07:16;;;;;;;8.05;5.07;;;;;28.60;96674.00;;;;8344117;28;20197;-73
2023/06/21 18:11:21;;;;;;;7.22;4.57;;;;;28.10;96676.00;;;;8342463;28;20204;-71
2023/06/21 18:15:27;;;;;;;6.20;4.57;;;;;27.70;96681.00;;;;8343198;28;20232;-74
2023/06/21 18:19:31;;;;;;;7.00;5.07;;;;;27.40;96672.00;;;;8345943;28;20225;-68
2023/06/21 18:23:37;;;;;;;8.30;4.78;;;;;27.20;96663.00;;;;8344008;28;20197;-72
2023/06/21 18:27:42;;;;;;;10.50;5.25;;;;;27.00;96658.00;;;;8338102;28;20246;-73
2023/06/21 18:31:45;;;;;;;12.35;5.43;;;;;26.80;96662.00;;;;8345010;28;20286;-69
2023/06/21 18:35:50;;;;;;;9.48;5.60;;;;;26.70;96650.00;;;;8346208;28;20721;-70
2023/06/21 18:39:53;;;;;;;8.40;5.28;;;;;26.50;96647.00;;;;8342675;28;20235;-68
2023/06/21 18:43:57;;;;;;;7.30;5.00;;;;;26.30;96638.00;;;;8349021;28;20200;-70
2023/06/21 18:48:00;;;;;;;6.22;4.75;;;;;26.10;96640.00;;;;8341373;28;20723;-71
2023/06/21 18:52:10;;;;;;;10.15;5.10;;;;;25.90;96631.00;;;;8345251;28;20776;-70
2023/06/21 18:56:20;;;;;;;7.78;5.30;;;;;25.70;96622.00;;;;8343870;28;20197;-68
2023/06/21 19:00:29;;;;;;;8.60;5.18;;;;;25.40;96606.00;;;;8326611;28;20659;-70
2023/06/21 19:04:33;;;;;;;9.48;5.18;;;;;25.10;96598.00;;;;8348412;28;20239;-71
2023/06/21 19:08:48;;;;;;;11.30;5.90;;;;;24.80;96614.00;;;;8338752;28;20720;-69
2023/06/21 19:12:54;;;;;;;17.08;5.50;;;;;24.40;96612.00;;;;8358186;28;20196;-67
2023/06/21 19:16:59;;;;;;;13.93;5.63;;;;;24.20;96632.00;;;;8351537;28;20193;-69
2023/06/21 19:21:04;;;;;;;12.90;5.25;;;;;24.00;96647.00;;;;8350152;28;20256;-69
2023/06/21 19:25:08;;;;;;;16.10;6.00;;;;;23.70;96666.00;;;;8357130;28;20233;-72
2023/06/21 19:29:12;;;;;;;10.40;6.00;;;;;23.30;96687.00;;;;8355361;28;20193;-75
2023/06/21 19:33:19;;;;;;;9.80;5.55;;;;;23.20;96708.00;;;;8355196;28;20410;-70
2023/06/21 19:37:25;;;;;;;14.90;6.45;;;;;23.00;96730.00;;;;8361840;28;20201;-72
2023/06/21 19:41:28;;;;;;;11.82;5.20;;;;;22.80;96742.00;;;;8348641;28;20323;-70
2023/06/21 19:45:34;;;;;;;13.82;5.80;;;;;22.60;96747.00;;;;8355076;28;20329;-67
2023/06/21 19:49:45;;;;;;;17.67;6.30;;;;;22.30;96735.00;;;;8328945;28;20204;-68
2023/06/21 19:53:48;;;;;;;8.32;6.03;;;;;22.10;96726.00;;;;8347871;28;20197;-67
2023/06/21 19:57:54;;;;;;;17.60;7.07;;;;;21.90;96704.00;;;;8347511;28;20196;-72
2023/06/21 20:01:57;;;;;;;14.18;6.53;;;;;21.60;96728.00;;;;8344214;28;20749;-69
2023/06/21 20:06:02;;;;;;;18.35;6.88;;;;;21.40;96719.00;;;;8348162;28;20239;-67
2023/06/21 20:10:06;;;;;;;16.67;7.22;;;;;21.40;96722.00;;;;8353790;28;20288;-71
2023/06/21 20:14:12;;;;;;;13.68;7.50;;;;;21.30;96728.00;;;;8351613;28;20828;-70
2023/06/21 20:18:21;;;;;;;14.45;6.75;;;;;21.20;96727.00;;;;8346903;28;20917;-68
2023/06/21 20:22:26;;;;;;;15.25;7.38;;;;;21.10;96735.00;;;;8348302;28;20315;-67
2023/06/21 20:26:32;;;;;;;17.25;7.10;;;;;21.10;96733.00;;;;8337493;28;20694;-68